Time;durP1;ratioP1;P1;durP2;ratioP2;P2;SDS_P1;SDS_P2;PMS_P1;PMS_P2;Temp;Humidity;BMP_temperature;BMP_pressure;BME280_temperature;BME280_humidity;BME280_pressure;Samples;Min_cycle;Max_cycle;Signal;HPM_P1;HPM_P2
2023/04/01 00:01:25;;;;;;;;;;;;;;;;;;;;;
2023/04/01 00:07:18;;;;;;;4.00;1.80;;;;;;;7.27;79.33;97064.27;222479;1279;22651;-73
2023/04/01 00:13:49;;;;;;;2.90;1.80;;;;;;;7.20;79.57;97061.47;222413;1279;22582;-72
2023/04/01 00:27:26;;;;;;;5.20;2.00;;;;;;;7.15;80.42;97044.31;222465;1279;22608;-73
2023/04/01 00:33:34;;;;;;;2.70;1.60;;;;;;;7.14;80.23;97041.98;221335;1274;24187;-74
2023/04/01 00:39:56;;;;;;;3.80;2.00;;;;;;;7.07;80.10;97047.71;222416;1279;25339;-73
2023/04/01 00:46:35;;;;;;;3.50;2.10;;;;;;;7.02;80.50;97053.66;222271;1279;22930;-73
2023/04/01 00:52:53;;;;;;;3.50;2.10;;;;;;;7.05;81.07;97053.94;221597;1279;24261;-73
2023/04/01 00:59:25;;;;;;;3.90;2.20;;;;;;;7.17;81.17;97056.18;221415;1279;22523;-74
2023/04/01 01:06:11;;;;;;;;;;;;;;;;;;;;;
2023/04/01 01:12:37;;;;;;;3.70;1.90;;;;;;;7.45;80.88;97053.17;221422;1259;25347;-73
2023/04/01 01:26:30;;;;;;;;;;;;;;;;;;;;;
2023/04/01 01:32:52;;;;;;;;;;;;;;;;;;;;;
2023/04/01 01:39:43;;;;;;;;;;;;;;;;;;;;;
2023/04/01 01:45:07;;;;;;;5.90;3.00;;;;;;;7.20;80.38;97041.06;221362;1278;22532;-74
2023/04/01 01:50:38;;;;;;;;;;;;;;;;;;;;;
2023/04/01 01:57:01;;;;;;;4.00;2.80;;;;;;;7.04;80.70;97034.75;221358;1269;25325;-73
2023/04/01 02:03:36;;;;;;;;;;;;;;;;;;;;;
2023/04/01 02:16:52;;;;;;;;;;;;;;;;;;;;;
2023/04/01 02:23:10;;;;;;;6.50;4.50;;;;;;;7.05;81.41;97049.81;222404;1279;23815;-73
2023/04/01 02:29:57;;;;;;;;;;;;;;;;;;;;;
2023/04/01 02:43:17;;;;;;;7.00;4.50;;;;;;;7.25;81.61;97049.41;222136;1280;22549;-74
2023/04/01 02:50:07;;;;;;;;;;;;;;;;;;;;;
2023/04/01 02:56:56;;;;;;;8.60;4.70;;;;;;;7.34;81.28;97058.73;221657;1280;22576;-73
2023/04/01 03:03:46;;;;;;;5.10;4.30;;;;;;;7.32;81.46;97067.18;220585;1280;22525;-73
2023/04/01 03:10:30;;;;;;;;;;;;;;;;;;;;;
2023/04/01 03:16:39;;;;;;;;;;;;;;;;;;;;;
2023/04/01 03:22:27;;;;;;;;;;;;;;;;;;;;;
2023/04/01 03:28:57;;;;;;;;;;;;;;;;;;;;;
2023/04/01 03:35:06;;;;;;;5.50;3.80;;;;;;;6.73;82.03;97069.14;222231;1280;22611;-73
2023/04/01 03:41:30;;;;;;;;;;;;;;;;;;;;;
2023/04/01 03:48:02;;;;;;;6.50;3.60;;;;;;;6.74;82.50;97074.02;221027;1270;22543;-73
2023/04/01 03:54:06;;;;;;;;;;;;;;;;;;;;;
2023/04/01 04:00:15;;;;;;;5.20;3.30;;;;;;;6.98;82.54;97076.05;221215;1280;26373;-74
2023/04/01 04:06:26;;;;;;;5.10;3.30;;;;;;;7.11;82.72;97080.66;221287;1280;22608;-73
2023/04/01 04:13:12;;;;;;;4.80;3.50;;;;;;;7.22;82.77;97080.49;221757;1280;24344;-74
2023/04/01 04:19:02;;;;;;;4.50;3.40;;;;;;;7.33;82.90;97074.30;221918;1280;22530;-73
2023/04/01 04:25:27;;;;;;;;;;;;;;;;;;;;;
2023/04/01 04:31:23;;;;;;;4.20;3.50;;;;;;;7.45;82.41;97070.11;221278;1280;22560;-73
2023/04/01 04:36:53;;;;;;;5.80;3.50;;;;;;;7.52;82.60;97067.50;221067;1280;22540;-72
2023/04/01 04:42:08;;;;;;;6.60;4.00;;;;;;;7.59;82.58;97065.32;221278;1280;22541;-73
2023/04/01 04:47:30;;;;;;;;;;;;;;;;;;;;;
2023/04/01 04:52:45;;;;;;;6.20;3.90;;;;;;;7.71;82.51;97068.91;221069;1280;22554;-73
2023/04/01 04:58:01;;;;;;;8.00;4.30;;;;;;;7.80;82.39;97076.02;221121;1280;25259;-73
2023/04/01 05:03:07;;;;;;;6.20;4.00;;;;;;;7.86;82.26;97070.66;222045;1280;25336;-73
2023/04/01 05:08:35;;;;;;;;;;;;;;;;;;;;;
2023/04/01 05:13:44;;;;;;;6.40;3.80;;;;;;;8.02;82.25;97073.65;221263;1280;23800;-73
2023/04/01 05:18:59;;;;;;;;;;;;;;;;;;;;;
2023/04/01 05:24:42;;;;;;;;;;;;;;;;;;;;;
2023/04/01 05:30:01;;;;;;;6.80;3.50;;;;;;;8.22;81.90;97084.66;221338;1280;25236;-73
2023/04/01 05:36:38;;;;;;;;;;;;;;;;;;;;;
2023/04/01 05:42:39;;;;;;;5.60;4.10;;;;;;;8.39;81.93;97084.59;221202;1280;22613;-72
2023/04/01 05:48:52;;;;;;;6.70;3.80;;;;;;;8.46;81.47;97081.78;221607;1280;23003;-73
2023/04/01 05:54:37;;;;;;;;;;;;;;;;;;;;;
2023/04/01 06:00:22;;;;;;;6.50;3.90;;;;;;;8.65;81.88;97087.83;221270;1280;24379;-74
2023/04/01 06:05:49;;;;;;;7.50;4.80;;;;;;;8.73;81.42;97088.38;220917;1280;25254;-73
2023/04/01 06:12:08;;;;;;;6.60;4.80;;;;;;;8.82;81.22;97092.04;221464;1280;25415;-74
2023/04/01 06:18:43;;;;;;;;;;;;;;;;;;;;;
2023/04/01 06:25:05;;;;;;;6.90;4.80;;;;;;;8.98;81.02;97101.45;221141;1288;22501;-73
2023/04/01 06:31:56;;;;;;;;;;;;;;;;;;;;;
2023/04/01 06:38:17;;;;;;;9.40;4.60;;;;;;;9.05;80.80;97110.19;221001;1288;22656;-72
2023/04/01 06:45:18;;;;;;;6.80;4.20;;;;;;;9.09;80.73;97111.77;220271;1283;22581;-73
2023/04/01 06:58:54;;;;;;;7.80;4.20;;;;;;;9.25;80.24;97121.65;221238;1279;22536;-72
2023/04/01 07:04:44;;;;;;;;;;;;;;;;;;;;;
2023/04/01 07:10:10;;;;;;;9.00;5.30;;;;;;;9.26;80.86;97132.78;221556;1261;22520;-69
2023/04/01 07:22:38;;;;;;;;;;;;;;;;;;;;;
2023/04/01 07:29:14;;;;;;;8.70;4.60;;;;;;;9.51;80.89;97146.44;221521;1267;22696;-71
2023/04/01 07:35:55;;;;;;;7.00;4.10;;;;;;;9.76;80.99;97149.09;221629;1273;25294;-72
2023/04/01 07:41:35;;;;;;;5.80;3.60;;;;;;;10.03;81.06;97152.75;220946;1281;22661;-74
2023/04/01 07:47:30;;;;;;;;;;;;;;;;;;;;;
2023/04/01 07:52:52;;;;;;;6.10;3.10;;;;;;;10.61;80.38;97158.98;221470;1273;24332;-72
2023/04/01 07:58:20;;;;;;;4.50;3.30;;;;;;;10.80;80.31;97155.30;221262;1275;22559;-73
2023/04/01 08:04:44;;;;;;;;;;;;;;;;;;;;;
2023/04/01 08:10:23;;;;;;;3.40;3.00;;;;;;;11.74;80.07;97160.48;221235;1267;22534;-72
2023/04/01 08:16:35;;;;;;;5.80;3.80;;;;;;;12.18;79.28;97163.26;221643;1275;22621;-72
2023/04/01 08:21:45;;;;;;;3.70;2.70;;;;;;;12.23;78.31;97166.57;221676;1257;22546;-72
2023/04/01 08:26:51;;;;;;;2.80;2.10;;;;;;;12.09;78.16;97167.43;221527;1275;22629;-74
2023/04/01 08:32:08;;;;;;;3.20;2.10;;;;;;;11.96;78.32;97167.61;221322;1281;22533;-74
2023/04/01 08:38:18;;;;;;;8.90;7.40;;;;;;;12.20;78.75;97166.36;221658;1275;22538;-73
2023/04/01 08:43:34;;;;;;;3.80;2.20;;;;;;;12.43;78.48;97169.77;221476;1270;25463;-78
2023/04/01 08:48:50;;;;;;;3.80;2.10;;;;;;;12.67;78.44;97163.97;221533;1274;22984;-72
2023/04/01 08:54:16;;;;;;;3.80;2.00;;;;;;;12.89;77.90;97163.73;221509;1273;23552;-72
2023/04/01 09:00:10;;;;;;;1.70;1.50;;;;;;;12.73;76.81;97169.20;221925;1274;24417;-75
2023/04/01 09:06:05;;;;;;;2.40;1.70;;;;;;;12.44;76.74;97170.59;221824;1275;22667;-72
2023/04/01 09:11:58;;;;;;;1.90;1.70;;;;;;;12.55;77.15;97173.36;221691;1280;25062;-74
2023/04/01 09:17:47;;;;;;;3.30;2.10;;;;;;;12.92;77.49;97175.11;221699;1281;25250;-74
2023/04/01 09:23:28;;;;;;;3.00;2.60;;;;;;;13.22;76.79;97169.48;221537;1273;23273;-70
2023/04/01 11:50:59;;;;;;;2.00;1.90;;;;;;;12.41;77.47;97182.30;192806;1288;942771;-76
2023/04/01 11:56:31;;;;;;;2.00;1.90;;;;;;;12.43;78.00;97184.14;218333;1302;22684;-77
2023/04/01 12:01:43;;;;;;;1.50;1.40;;;;;;;12.57;78.19;97181.36;217703;1302;23363;-76
2023/04/01 12:06:59;;;;;;;1.60;1.40;;;;;;;12.67;78.00;97187.77;217624;1302;23459;-76
2023/04/01 12:12:24;;;;;;;1.70;1.40;;;;;;;12.73;77.54;97187.39;217583;1302;22599;-77
2023/04/01 12:18:08;;;;;;;1.20;1.20;;;;;;;12.94;77.61;97191.16;217415;1302;24288;-78
2023/04/01 12:23:10;;;;;;;0.90;0.90;;;;;;;13.03;76.40;97188.65;216048;1303;22561;-77
2023/04/01 12:28:41;;;;;;;1.30;1.10;;;;;;;12.93;75.99;97195.17;217467;1302;22675;-77
2023/04/01 12:34:01;;;;;;;5.20;3.80;;;;;;;13.05;76.41;97193.57;217781;1301;25267;-77
2023/04/01 12:39:18;;;;;;;3.30;2.30;;;;;;;13.55;76.28;97192.64;217758;1298;22591;-77
2023/04/01 12:45:02;;;;;;;1.50;1.30;;;;;;;13.64;74.14;97199.96;217522;1301;25973;-77
2023/04/01 12:50:17;;;;;;;1.40;1.30;;;;;;;13.43;74.15;97193.34;217977;1295;25502;-77
2023/04/01 12:55:42;;;;;;;1.80;1.20;;;;;;;13.38;74.08;97193.73;217578;1283;22556;-77
2023/04/01 13:01:01;;;;;;;1.80;1.20;;;;;;;13.41;74.04;97193.15;217627;1301;24427;-77
2023/04/01 13:06:44;;;;;;;1.80;1.60;;;;;;;13.29;73.26;97198.17;217445;1302;22649;-76
2023/04/01 13:13:11;;;;;;;1.50;1.10;;;;;;;13.21;73.78;97201.77;217782;1302;22569;-78
2023/04/01 13:18:32;;;;;;;1.20;1.10;;;;;;;13.20;72.88;97205.64;217874;1296;24310;-78
2023/04/01 13:24:09;;;;;;;1.50;1.40;;;;;;;13.20;73.10;97204.36;217669;1299;22553;-75
2023/04/01 13:29:45;;;;;;;1.60;1.40;;;;;;;13.28;72.85;97200.88;217322;1302;23942;-78
2023/04/01 13:35:00;;;;;;;2.10;1.40;;;;;;;13.25;72.38;97203.73;217689;1302;24295;-77
2023/04/01 13:40:48;;;;;;;2.10;1.70;;;;;;;13.14;72.89;97205.84;217718;1299;23006;-78
2023/04/01 13:46:50;;;;;;;2.60;2.10;;;;;;;12.99;73.80;97221.48;219060;1298;22587;-76
2023/04/01 13:52:24;;;;;;;3.30;2.90;;;;;;;12.67;74.73;97223.86;219172;1302;24240;-76
2023/04/01 13:57:39;;;;;;;3.60;3.30;;;;;;;12.32;75.74;97230.30;218347;1302;24316;-76
2023/04/01 14:02:51;;;;;;;3.20;2.90;;;;;;;12.02;76.35;97232.08;218502;1299;22557;-78
2023/04/01 14:08:19;;;;;;;3.20;2.70;;;;;;;11.66;76.68;97244.77;217987;1292;23949;-76
2023/04/01 14:13:41;;;;;;;3.10;2.50;;;;;;;11.32;77.36;97259.36;219084;1299;25297;-76
2023/04/01 14:19:19;;;;;;;1.60;1.50;;;;;;;10.92;78.57;97263.82;219479;1292;22549;-76
2023/04/01 14:24:52;;;;;;;1.30;1.10;;;;;;;10.51;78.70;97262.63;221106;1302;23382;-76
2023/04/01 14:30:12;;;;;;;1.90;1.50;;;;;;;10.36;79.54;97253.73;220948;1302;22584;-76
2023/04/01 14:35:53;;;;;;;5.20;2.80;;;;;;;10.39;80.06;97252.48;220411;1302;21945;-75
2023/04/01 14:41:41;;;;;;;6.60;4.20;;;;;;;10.50;80.26;97262.41;218481;1302;24208;-76
2023/04/01 14:47:29;;;;;;;2.90;2.00;;;;;;;10.58;80.67;97266.23;218271;1297;22559;-77
2023/04/01 14:52:43;;;;;;;4.00;2.40;;;;;;;10.63;80.25;97260.08;217688;1302;22628;-78
2023/04/01 14:58:12;;;;;;;3.20;2.30;;;;;;;10.73;80.43;97264.52;218070;1302;25285;-79
2023/04/01 15:04:09;;;;;;;;;;;;;;;;;;;;;
2023/04/01 15:09:38;;;;;;;3.30;2.40;;;;;;;10.88;80.49;97271.60;217683;1302;22568;-78
2023/04/01 15:15:25;;;;;;;3.00;2.40;;;;;;;10.83;80.39;97273.52;217474;1302;22742;-78
2023/04/01 15:20:56;;;;;;;3.40;2.10;;;;;;;10.79;80.51;97289.30;217447;1302;22576;-78
2023/04/01 15:26:19;;;;;;;2.30;1.90;;;;;;;10.74;80.25;97295.34;217720;1299;22666;-78
2023/04/01 15:31:38;;;;;;;3.60;2.60;;;;;;;10.62;80.01;97306.70;217718;1296;22611;-77
2023/04/01 15:37:04;;;;;;;3.30;2.40;;;;;;;10.49;79.88;97312.80;217405;1302;24304;-78
2023/04/01 15:42:29;;;;;;;3.10;2.30;;;;;;;10.40;80.65;97310.27;217523;1301;22550;-78
2023/04/01 15:47:43;;;;;;;;;;;;;;;10.31;80.56;97312.99;217770;1302;22521;-77
2023/04/01 15:53:36;;;;;;;4.70;2.60;;;;;;;10.23;80.91;97315.69;217609;1293;22552;-77
2023/04/01 15:59:05;;;;;;;4.40;2.20;;;;;;;10.13;80.51;97322.44;216985;1302;24313;-77
2023/04/01 16:04:36;;;;;;;4.00;2.20;;;;;;;10.00;80.37;97319.30;217767;1298;22559;-78
2023/04/01 16:09:56;;;;;;;3.90;1.90;;;;;;;9.90;80.30;97321.08;217586;1292;22576;-81
2023/04/01 16:15:24;;;;;;;2.50;2.10;;;;;;;9.86;80.99;97315.95;217885;1299;22575;-77
2023/04/01 16:21:07;;;;;;;7.30;3.90;;;;;;;9.85;81.19;97327.33;217864;1296;24291;-76
2023/04/01 16:26:23;;;;;;;6.70;4.40;;;;;;;9.83;81.42;97327.98;217627;1296;25263;-77
2023/04/01 16:31:55;;;;;;;6.30;4.40;;;;;;;9.75;81.49;97333.32;217698;1302;22607;-77
2023/04/01 16:37:37;;;;;;;7.20;4.80;;;;;;;9.62;81.76;97344.35;217451;1302;22580;-78
2023/04/01 16:43:08;;;;;;;7.30;3.90;;;;;;;9.50;82.00;97350.30;217477;1299;22786;-77
2023/04/01 16:48:45;;;;;;;6.40;4.00;;;;;;;9.39;82.47;97361.70;217513;1302;25436;-77
2023/04/01 16:54:30;;;;;;;5.90;5.10;;;;;;;9.31;82.65;97372.01;217981;1301;24556;-76
2023/04/01 16:59:41;;;;;;;8.60;6.60;;;;;;;9.24;83.08;97386.79;217888;1302;22598;-76
2023/04/01 17:05:13;;;;;;;7.40;5.20;;;;;;;9.20;83.61;97393.98;217840;1299;22682;-76
2023/04/01 17:10:59;;;;;;;5.50;4.00;;;;;;;9.14;83.59;97398.91;217515;1302;26422;-77
2023/04/01 17:16:28;;;;;;;4.30;3.90;;;;;;;9.06;83.85;97407.76;217641;1302;24482;-77
2023/04/01 17:22:03;;;;;;;5.20;2.80;;;;;;;8.98;84.10;97425.27;217635;1299;24281;-77
2023/04/01 17:27:30;;;;;;;4.30;2.90;;;;;;;8.82;85.15;97440.02;220240;1302;24217;-76
2023/04/01 17:33:05;;;;;;;;;;;;;;;;;;;;;
2023/04/01 17:38:44;;;;;;;3.10;2.00;;;;;;;8.52;85.32;97448.19;220745;1302;22579;-79
2023/04/01 17:44:03;;;;;;;4.00;2.30;;;;;;;8.40;85.85;97455.23;221281;1301;22505;-79
2023/04/01 17:49:26;;;;;;;3.90;2.80;;;;;;;8.35;85.80;97462.77;219147;1302;22556;-79
2023/04/01 17:55:18;;;;;;;6.50;4.20;;;;;;;8.30;85.87;97470.83;218384;1296;22602;-79
2023/04/01 18:00:30;;;;;;;6.30;4.70;;;;;;;8.25;86.22;97474.95;217655;1302;22560;-79
2023/04/01 18:06:10;;;;;;;5.80;4.70;;;;;;;8.23;86.45;97476.17;217824;1299;22633;-80
2023/04/01 18:11:38;;;;;;;7.50;6.70;;;;;;;8.23;86.69;97480.21;217489;1302;24225;-78
2023/04/01 18:17:32;;;;;;;7.70;6.80;;;;;;;8.24;86.83;97481.35;217514;1299;24998;-79
2023/04/01 18:22:55;;;;;;;7.40;6.60;;;;;;;8.22;86.95;97482.24;217621;1302;22570;-80
2023/04/01 18:28:34;;;;;;;7.70;6.30;;;;;;;8.22;87.12;97484.74;217484;1302;24295;-80
2023/04/01 18:34:20;;;;;;;7.20;6.30;;;;;;;8.23;87.01;97492.56;217768;1299;24376;-79
2023/04/01 18:39:37;;;;;;;8.30;7.50;;;;;;;8.19;87.17;97498.98;217788;1299;22575;-79
2023/04/01 18:45:06;;;;;;;10.20;8.20;;;;;;;8.17;87.32;97506.09;217882;1299;22613;-79
2023/04/01 18:50:43;;;;;;;11.60;10.40;;;;;;;8.15;87.37;97505.86;217565;1302;24304;-79
2023/04/01 18:55:56;;;;;;;14.40;12.10;;;;;;;8.13;87.68;97513.95;217502;1302;23481;-79
2023/04/01 19:01:12;;;;;;;15.80;13.60;;;;;;;8.11;87.58;97515.64;217919;1299;22550;-79
2023/04/01 19:06:30;;;;;;;18.50;14.60;;;;;;;8.09;87.79;97518.00;217913;1299;22547;-79
2023/04/01 19:12:00;;;;;;;18.80;14.40;;;;;;;8.09;87.99;97522.40;217481;1296;22560;-79
2023/04/01 19:17:44;;;;;;;28.60;21.40;;;;;;;8.08;87.79;97527.83;217634;1302;24782;-79
2023/04/01 19:23:07;;;;;;;19.40;14.30;;;;;;;8.07;87.74;97534.83;216461;1308;25393;-79
2023/04/01 19:28:31;;;;;;;;;;;;;;;8.05;87.90;97536.48;216362;1305;22539;-79
2023/04/01 19:34:24;;;;;;;24.00;16.30;;;;;;;8.01;87.69;97547.86;216102;1310;24339;-79
2023/04/01 19:39:48;;;;;;;20.40;15.20;;;;;;;7.96;87.84;97553.45;216013;1310;22671;-79
2023/04/01 19:45:33;;;;;;;19.90;14.80;;;;;;;7.94;87.93;97553.84;216071;1303;25290;-79
2023/04/01 19:51:20;;;;;;;20.10;14.90;;;;;;;7.92;88.16;97564.60;214941;1310;24378;-78
2023/04/01 19:56:43;;;;;;;22.40;16.20;;;;;;;7.90;88.26;97569.98;216706;1305;23180;-79
2023/04/01 20:02:27;;;;;;;24.00;16.40;;;;;;;7.89;88.35;97576.31;217038;1301;22638;-80
2023/04/01 20:07:46;;;;;;;26.70;17.40;;;;;;;7.90;88.31;97580.77;217044;1302;25373;-79
2023/04/01 20:13:06;;;;;;;19.80;14.50;;;;;;;7.87;88.26;97581.79;217003;1299;22549;-79
2023/04/01 20:18:48;;;;;;;24.00;17.50;;;;;;;7.83;88.29;97581.83;217031;1305;23357;-80
2023/04/01 20:24:01;;;;;;;30.80;24.20;;;;;;;7.77;88.31;97583.23;217000;1305;22870;-79
2023/04/01 20:29:59;;;;;;;37.20;28.00;;;;;;;7.72;88.03;97585.20;217630;1300;22968;-78
2023/04/01 20:35:46;;;;;;;48.00;34.30;;;;;;;7.66;88.03;97592.71;217234;1302;22559;-79
2023/04/01 20:41:27;;;;;;;32.90;25.60;;;;;;;7.64;88.42;97601.40;217448;1302;22665;-80
2023/04/01 20:46:56;;;;;;;36.90;24.80;;;;;;;7.65;88.34;97604.33;217539;1299;22545;-79
2023/04/01 20:52:40;;;;;;;25.30;17.60;;;;;;;7.71;88.86;97608.86;217663;1300;22561;-79
2023/04/01 20:58:17;;;;;;;20.50;15.50;;;;;;;7.74;88.44;97611.52;216835;1302;22530;-81
2023/04/01 21:03:31;;;;;;;18.30;14.00;;;;;;;7.74;88.38;97614.04;216717;1305;22558;-79
2023/04/01 21:09:00;;;;;;;20.50;16.20;;;;;;;7.76;88.73;97620.19;216946;1305;25372;-79
2023/04/01 21:14:35;;;;;;;25.10;19.20;;;;;;;7.82;89.17;97627.50;217039;1305;22552;-78
2023/04/01 21:20:05;;;;;;;36.80;24.40;;;;;;;7.87;88.91;97633.73;216991;1302;22563;-79
2023/04/01 21:25:56;;;;;;;37.70;27.60;;;;;;;7.92;89.00;97636.58;217030;1302;24253;-78
2023/04/01 21:31:46;;;;;;;33.30;25.10;;;;;;;7.96;89.13;97640.88;217397;1302;25429;-79
2023/04/01 21:37:03;;;;;;;26.60;20.10;;;;;;;7.99;89.18;97642.80;217602;1301;25377;-79
2023/04/01 21:42:53;;;;;;;29.40;22.50;;;;;;;7.99;89.55;97643.48;217668;1302;22855;-79
2023/04/01 21:48:24;;;;;;;36.60;26.60;;;;;;;7.99;89.44;97646.11;217569;1302;22563;-78
2023/04/01 21:54:22;;;;;;;;;;;;;;;;;;;;;
2023/04/01 22:00:11;;;;;;;48.50;36.20;;;;;;;7.99;89.45;97645.59;217665;1302;22983;-79
2023/04/01 22:05:17;;;;;;;57.60;39.80;;;;;;;7.99;89.28;97649.52;217695;1299;23776;-79
2023/04/01 22:10:39;;;;;;;55.60;38.00;;;;;;;7.98;89.28;97656.06;217638;1296;25357;-80
2023/04/01 22:16:11;;;;;;;52.60;37.10;;;;;;;7.92;89.04;97657.85;217858;1299;22666;-79
2023/04/01 22:21:44;;;;;;;55.70;38.70;;;;;;;7.92;89.51;97662.43;217540;1299;346480;-79
2023/04/01 22:27:19;;;;;;;55.40;38.30;;;;;;;7.90;89.36;97663.59;217739;1299;22551;-79
2023/04/01 22:33:00;;;;;;;51.60;38.10;;;;;;;7.87;89.49;97665.61;217820;1302;22869;-78
2023/04/01 22:38:35;;;;;;;51.70;36.30;;;;;;;7.81;89.05;97670.17;217587;1302;25384;-79
2023/04/01 22:43:49;;;;;;;56.90;40.40;;;;;;;7.74;89.09;97670.91;217597;1302;22780;-78
2023/04/01 22:49:01;;;;;;;60.30;42.80;;;;;;;7.68;89.00;97678.05;217200;1302;24434;-79
2023/04/01 22:54:44;;;;;;;50.00;36.40;;;;;;;7.64;89.34;97686.45;217544;1280;22782;-78
2023/04/01 22:59:57;;;;;;;44.40;31.30;;;;;;;7.63;89.37;97692.02;217554;1299;25209;-79
2023/04/01 23:05:03;;;;;;;48.00;30.70;;;;;;;7.63;89.11;97691.98;217766;1302;24273;-79
2023/04/01 23:10:21;;;;;;;45.40;29.50;;;;;;;7.66;89.88;97693.69;217909;1302;24292;-79
2023/04/01 23:15:46;;;;;;;50.40;30.30;;;;;;;7.71;89.76;97693.73;217716;1302;22571;-79
2023/04/01 23:21:10;;;;;;;45.90;30.80;;;;;;;7.75;89.64;97694.04;217553;1302;24345;-78
2023/04/01 23:26:25;;;;;;;51.40;33.80;;;;;;;7.75;89.73;97694.57;217719;1283;24132;-79
2023/04/01 23:31:35;;;;;;;54.10;36.70;;;;;;;7.77;89.86;97688.39;217540;1302;25268;-79
2023/04/01 23:36:39;;;;;;;55.80;37.10;;;;;;;7.80;90.07;97698.81;217688;1302;22563;-77
2023/04/01 23:41:43;;;;;;;59.50;40.50;;;;;;;7.79;89.79;97706.16;217773;1300;22672;-79
2023/04/01 23:47:28;;;;;;;69.60;43.80;;;;;;;7.83;89.96;97707.04;217259;1299;25446;-79
2023/04/01 23:52:41;;;;;;;70.50;44.10;;;;;;;7.83;89.81;97713.10;217360;1303;25472;-78
2023/04/01 23:58:26;;;;;;;76.50;48.10;;;;;;;7.83;89.98;97715.85;217369;1300;22681;-78
